createdAt,value
2023-03-26T00:00:09.742Z,17.21
2023-03-26T00:00:35.160Z,17.21
2023-03-26T00:00:57.537Z,17.25
2023-03-26T00:01:21.611Z,17.24
2023-03-26T00:01:46.924Z,17.26
2023-03-26T00:02:09.693Z,17.29
2023-03-26T00:02:31.743Z,17.30
2023-03-26T00:02:53.559Z,17.26
2023-03-26T00:03:16.974Z,17.20
2023-03-26T00:03:40.857Z,17.22
2023-03-26T00:04:05.639Z,17.19
2023-03-26T00:04:28.076Z,17.12
2023-03-26T00:04:49.893Z,17.05
2023-03-26T00:05:14.574Z,17.07
2023-03-26T00:05:37.295Z,16.94
2023-03-26T00:06:04.038Z,17.11
2023-03-26T00:06:27.267Z,17.11
2023-03-26T00:06:50.218Z,17.11
2023-03-26T00:07:13.034Z,17.09
2023-03-26T00:07:35.051Z,17.04
2023-03-26T00:07:56.916Z,17.03
2023-03-26T00:08:18.666Z,17.04
2023-03-26T00:08:42.129Z,17.03
2023-03-26T00:09:09.624Z,17.06
2023-03-26T00:09:31.299Z,16.96
2023-03-26T00:09:53.390Z,17.11
2023-03-26T00:10:15.413Z,17.08
2023-03-26T00:10:38.055Z,17.10
2023-03-26T00:11:01.263Z,17.06
2023-03-26T00:11:24.450Z,17.11
2023-03-26T00:11:46.470Z,17.14
2023-03-26T00:12:08.168Z,17.14
2023-03-26T00:12:29.882Z,17.10
2023-03-26T00:12:52.589Z,17.13
2023-03-26T00:13:14.170Z,17.16
2023-03-26T00:13:36.231Z,17.14
2023-03-26T00:13:58.198Z,17.10
2023-03-26T00:14:20.884Z,17.10
2023-03-26T00:14:43.587Z,17.06
2023-03-26T00:15:06.465Z,17.09
2023-03-26T00:15:28.097Z,17.14
2023-03-26T00:15:49.767Z,17.18
2023-03-26T00:16:13.822Z,17.14
2023-03-26T00:16:35.647Z,16.95
2023-03-26T00:16:57.691Z,17.02
2023-03-26T00:17:21.238Z,16.98
2023-03-26T00:17:46.517Z,16.95
2023-03-26T00:18:09.327Z,16.89
2023-03-26T00:18:34.853Z,16.92
2023-03-26T00:18:58.298Z,16.97
2023-03-26T00:19:20.574Z,17.04
2023-03-26T00:19:43.259Z,16.98
2023-03-26T00:20:08.001Z,17.05
2023-03-26T00:20:32.650Z,17.12
2023-03-26T00:20:54.258Z,17.16
2023-03-26T00:21:21.323Z,17.10
2023-03-26T00:21:42.990Z,17.25
2023-03-26T00:22:04.593Z,17.25
2023-03-26T00:22:26.469Z,17.25
2023-03-26T00:22:50.944Z,17.26
2023-03-26T00:23:13.448Z,17.26
2023-03-26T00:23:35.980Z,17.27
2023-03-26T00:23:59.843Z,17.24
2023-03-26T00:24:29.868Z,17.29
2023-03-26T00:24:51.617Z,17.25
2023-03-26T00:25:13.778Z,17.17
2023-03-26T00:25:38.218Z,17.09
2023-03-26T00:26:01.594Z,17.09
2023-03-26T00:26:24.039Z,17.14
2023-03-26T00:26:53.217Z,17.18
2023-03-26T00:27:16.139Z,17.18
2023-03-26T00:27:38.165Z,17.02
2023-03-26T00:27:59.876Z,17.14
2023-03-26T00:28:22.548Z,17.10
2023-03-26T00:28:44.638Z,17.11
2023-03-26T00:29:08.372Z,17.10
2023-03-26T00:29:33.218Z,17.12
2023-03-26T00:29:56.397Z,17.16
2023-03-26T00:30:18.208Z,17.18
2023-03-26T00:30:41.813Z,17.18
2023-03-26T00:31:05.956Z,17.21
2023-03-26T00:31:27.779Z,17.17
2023-03-26T00:31:49.428Z,17.20
2023-03-26T00:32:12.081Z,17.18
2023-03-26T00:32:33.853Z,17.23
2023-03-26T00:33:24.021Z,17.24
2023-03-26T00:33:47.649Z,17.08
2023-03-26T00:34:10.705Z,17.27
2023-03-26T00:34:34.370Z,17.28
2023-03-26T00:34:56.097Z,17.32
2023-03-26T00:35:25.318Z,17.35
2023-03-26T00:35:58.874Z,17.38
2023-03-26T00:36:21.913Z,17.41
2023-03-26T00:36:46.740Z,17.41
2023-03-26T00:37:08.798Z,17.42
2023-03-26T00:37:31.088Z,17.41
2023-03-26T00:37:53.443Z,17.31
2023-03-26T00:38:15.213Z,17.34
2023-03-26T00:38:39.383Z,17.31
2023-03-26T00:39:05.040Z,17.37
2023-03-26T00:39:27.340Z,17.37
2023-03-26T00:39:49.986Z,17.38
2023-03-26T00:40:12.694Z,17.40
2023-03-26T00:40:36.743Z,17.42
2023-03-26T00:41:06.129Z,17.37
2023-03-26T00:41:31.062Z,17.47
2023-03-26T00:41:54.426Z,17.47
2023-03-26T00:42:16.337Z,17.45
2023-03-26T00:42:38.477Z,17.40
2023-03-26T00:43:00.057Z,17.47
2023-03-26T00:43:26.404Z,17.50
2023-03-26T00:43:49.631Z,17.49
2023-03-26T00:44:11.687Z,17.53
2023-03-26T00:44:34.718Z,17.53
2023-03-26T00:44:57.699Z,17.58
2023-03-26T00:45:21.842Z,17.58
2023-03-26T00:45:43.725Z,17.57
2023-03-26T00:46:06.754Z,17.60
2023-03-26T00:46:30.610Z,17.58
2023-03-26T00:46:52.707Z,17.57
2023-03-26T00:47:14.425Z,17.51
2023-03-26T00:47:37.096Z,17.37
2023-03-26T00:47:58.851Z,17.31
2023-03-26T00:48:28.956Z,17.34
2023-03-26T00:49:00.655Z,17.31
2023-03-26T00:49:26.645Z,17.28
2023-03-26T00:49:48.837Z,17.32
2023-03-26T00:50:15.475Z,17.31
2023-03-26T00:50:37.467Z,17.27
2023-03-26T00:51:00.051Z,17.27
2023-03-26T00:51:21.774Z,17.32
2023-03-26T00:51:43.539Z,17.26
2023-03-26T00:52:08.661Z,17.39
2023-03-26T00:52:31.743Z,17.42
2023-03-26T00:52:55.882Z,17.44
2023-03-26T00:53:19.902Z,17.44
2023-03-26T00:53:42.329Z,17.49
2023-03-26T00:54:05.314Z,17.46
2023-03-26T00:54:27.155Z,17.52
2023-03-26T00:54:52.090Z,17.50
2023-03-26T00:55:13.880Z,17.53
2023-03-26T00:55:36.592Z,17.54
2023-03-26T00:56:00.228Z,17.44
2023-03-26T00:56:22.190Z,17.43
2023-03-26T00:56:43.963Z,17.48
2023-03-26T00:57:10.320Z,17.49
2023-03-26T00:57:35.796Z,17.51
2023-03-26T00:57:57.694Z,17.54
2023-03-26T00:58:22.216Z,17.54
2023-03-26T00:58:46.313Z,17.58
2023-03-26T00:59:09.207Z,17.59
2023-03-26T00:59:31.956Z,17.47
2023-03-26T00:59:53.716Z,17.44
2023-03-26T01:00:20.348Z,17.45
2023-03-26T01:00:46.889Z,17.47
2023-03-26T01:01:10.937Z,17.36
2023-03-26T01:01:32.707Z,17.40
2023-03-26T01:01:58.343Z,17.43
2023-03-26T01:02:20.858Z,17.43
2023-03-26T01:02:45.160Z,17.47
2023-03-26T01:03:07.145Z,17.49
2023-03-26T01:03:33.586Z,17.47
2023-03-26T01:04:08.099Z,17.40
2023-03-26T01:04:34.879Z,17.51
2023-03-26T01:05:02.580Z,17.51
2023-03-26T01:05:48.621Z,17.55
2023-03-26T01:06:13.580Z,17.56
2023-03-26T01:06:38.835Z,17.60
2023-03-26T01:07:04.213Z,17.58
2023-03-26T01:07:28.930Z,17.58
2023-03-26T01:07:51.550Z,17.53
2023-03-26T01:08:19.424Z,17.50
2023-03-26T01:08:45.275Z,17.42
2023-03-26T01:09:15.758Z,17.44
2023-03-26T01:09:42.674Z,17.45
2023-03-26T01:10:04.637Z,17.44
2023-03-26T01:10:26.352Z,17.45
2023-03-26T01:10:51.739Z,17.26
2023-03-26T01:11:17.092Z,17.17
2023-03-26T01:11:38.766Z,17.17
2023-03-26T01:12:03.586Z,17.11
2023-03-26T01:12:27.676Z,17.10
2023-03-26T01:12:49.542Z,17.17
2023-03-26T01:13:11.294Z,17.21
2023-03-26T01:13:36.253Z,17.23
2023-03-26T01:14:02.190Z,17.25
2023-03-26T01:14:26.856Z,17.30
2023-03-26T01:14:51.098Z,17.30
2023-03-26T01:15:13.815Z,17.27
2023-03-26T01:15:37.314Z,17.23
2023-03-26T01:16:02.042Z,17.24
2023-03-26T01:16:27.879Z,17.27
2023-03-26T01:16:52.623Z,17.27
2023-03-26T01:17:15.912Z,17.33
2023-03-26T01:17:37.962Z,17.32
2023-03-26T01:17:59.733Z,17.31
2023-03-26T01:18:26.294Z,17.30
2023-03-26T01:18:48.884Z,17.23
2023-03-26T01:19:21.204Z,17.26
2023-03-26T01:19:48.832Z,17.26
2023-03-26T01:20:15.951Z,17.26
2023-03-26T01:20:46.615Z,17.29
2023-03-26T01:21:13.802Z,17.31
2023-03-26T01:21:36.014Z,17.31
2023-03-26T01:21:58.202Z,17.27
2023-03-26T01:22:23.832Z,17.28
2023-03-26T01:22:49.447Z,17.28
2023-03-26T01:23:11.414Z,17.26
2023-03-26T01:23:39.608Z,17.30
2023-03-26T01:24:05.117Z,17.30
2023-03-26T01:24:27.021Z,17.29
2023-03-26T01:25:25.394Z,17.16
2023-03-26T01:25:59.969Z,16.60
2023-03-26T01:27:09.462Z,17.11
2023-03-26T01:27:57.278Z,16.90
2023-03-26T01:28:30.859Z,16.99
2023-03-26T01:29:10.444Z,16.42
2023-03-26T01:29:50.389Z,16.52
2023-03-26T01:30:42.032Z,16.99
2023-03-26T01:31:18.071Z,16.98
2023-03-26T01:32:04.270Z,17.13
2023-03-26T01:32:52.871Z,17.12
2023-03-26T01:33:30.427Z,16.92
2023-03-26T01:34:24.140Z,16.63
2023-03-26T01:35:12.313Z,16.47
2023-03-26T01:35:58.319Z,16.37
2023-03-26T01:36:26.096Z,16.77
2023-03-26T01:36:57.318Z,17.08
2023-03-26T01:37:30.552Z,17.02
2023-03-26T01:38:10.894Z,16.97
2023-03-26T01:39:00.463Z,17.14
2023-03-26T01:39:49.321Z,17.17
2023-03-26T01:40:23.834Z,16.47
2023-03-26T01:40:56.123Z,16.31
2023-03-26T01:41:27.753Z,16.27
2023-03-26T01:42:39.977Z,16.72
2023-03-26T01:43:29.646Z,16.92
2023-03-26T01:44:55.904Z,16.57
2023-03-26T01:45:22.466Z,17.01
2023-03-26T01:45:47.767Z,17.00
2023-03-26T01:46:12.915Z,16.94
2023-03-26T01:46:36.319Z,16.96
2023-03-26T01:47:01.565Z,16.98
2023-03-26T01:47:23.391Z,16.97
2023-03-26T01:47:46.411Z,16.99
2023-03-26T01:48:08.970Z,16.97
2023-03-26T01:48:34.969Z,16.92
2023-03-26T01:48:56.578Z,16.96
2023-03-26T01:49:18.703Z,16.96
2023-03-26T01:49:40.324Z,16.96
2023-03-26T01:50:02.363Z,16.92
2023-03-26T01:50:25.709Z,16.93
2023-03-26T01:50:48.978Z,16.90
2023-03-26T01:51:12.523Z,16.80
2023-03-26T01:51:36.024Z,16.70
2023-03-26T01:51:59.713Z,16.77
2023-03-26T01:52:26.089Z,16.80
2023-03-26T01:52:47.761Z,16.83
2023-03-26T01:53:11.666Z,16.87
2023-03-26T01:53:35.397Z,16.89
2023-03-26T01:53:59.035Z,16.92
2023-03-26T01:54:24.486Z,16.89
2023-03-26T01:54:47.708Z,16.87
2023-03-26T01:55:12.679Z,16.89
2023-03-26T01:55:49.629Z,16.92
2023-03-26T01:56:16.044Z,16.90
2023-03-26T01:56:51.395Z,16.90
2023-03-26T01:57:20.512Z,16.93
2023-03-26T01:57:53.026Z,16.95
2023-03-26T01:58:23.514Z,16.99
2023-03-26T01:58:59.797Z,16.97
2023-03-26T01:59:35.303Z,16.84
2023-03-26T02:00:12.609Z,16.84
2023-03-26T02:00:42.164Z,16.78
2023-03-26T02:01:19.537Z,16.72
2023-03-26T02:01:46.727Z,16.72
2023-03-26T02:02:14.764Z,16.74
2023-03-26T02:02:49.918Z,16.71
2023-03-26T02:03:23.457Z,16.75
2023-03-26T02:03:49.873Z,16.75
2023-03-26T02:04:21.800Z,16.76
2023-03-26T02:04:53.340Z,16.74
2023-03-26T02:05:20.573Z,16.71
2023-03-26T02:05:48.998Z,16.64
2023-03-26T02:06:20.170Z,16.73
2023-03-26T02:06:47.354Z,16.74
2023-03-26T02:07:14.865Z,16.70
2023-03-26T02:07:42.258Z,16.68
2023-03-26T02:08:12.046Z,16.72
2023-03-26T02:08:39.365Z,16.72
2023-03-26T02:09:05.918Z,16.71
2023-03-26T02:09:31.279Z,16.63
2023-03-26T02:10:00.562Z,16.53
2023-03-26T02:10:28.009Z,16.55
2023-03-26T02:10:54.951Z,16.58
2023-03-26T02:11:16.930Z,16.64
2023-03-26T02:11:41.731Z,16.66
2023-03-26T02:12:06.083Z,16.66
2023-03-26T02:12:30.216Z,16.66
2023-03-26T02:12:54.035Z,16.70
2023-03-26T02:13:16.035Z,16.70
2023-03-26T02:13:39.842Z,16.75
2023-03-26T02:14:01.521Z,16.79
2023-03-26T02:14:24.658Z,16.79
2023-03-26T02:14:46.600Z,16.76
2023-03-26T02:15:09.813Z,16.80
2023-03-26T02:15:33.164Z,16.83
2023-03-26T02:15:57.453Z,16.81
2023-03-26T02:16:20.604Z,16.75
2023-03-26T02:16:46.845Z,16.78
2023-03-26T02:17:10.679Z,16.78
2023-03-26T02:17:33.178Z,16.55
2023-03-26T02:17:54.903Z,16.44
2023-03-26T02:18:24.062Z,16.47
2023-03-26T02:18:47.621Z,16.52
2023-03-26T02:19:15.549Z,16.59
2023-03-26T02:19:41.859Z,16.66
2023-03-26T02:20:06.237Z,16.70
2023-03-26T02:20:30.499Z,16.70
2023-03-26T02:20:53.727Z,16.69
2023-03-26T02:21:20.100Z,16.68
2023-03-26T02:21:43.440Z,16.68
2023-03-26T02:22:05.438Z,16.56
2023-03-26T02:22:29.844Z,16.71
2023-03-26T02:22:52.811Z,16.73
2023-03-26T02:23:14.888Z,16.73
2023-03-26T02:23:37.954Z,16.73
2023-03-26T02:24:03.380Z,16.73
2023-03-26T02:24:27.393Z,16.74
2023-03-26T02:24:52.225Z,16.73
2023-03-26T02:25:17.608Z,16.70
2023-03-26T02:25:41.916Z,16.76
2023-03-26T02:26:06.624Z,16.77
2023-03-26T02:26:32.320Z,16.76
2023-03-26T02:27:02.232Z,16.79
2023-03-26T02:27:24.579Z,16.79
2023-03-26T02:27:49.306Z,16.79
2023-03-26T02:28:12.311Z,16.81
2023-03-26T02:28:34.499Z,16.83
2023-03-26T02:28:56.781Z,16.84
2023-03-26T02:29:20.559Z,16.82
2023-03-26T02:29:44.177Z,16.81
2023-03-26T02:30:09.573Z,16.77
2023-03-26T02:30:33.622Z,16.79
2023-03-26T02:30:57.652Z,16.82
2023-03-26T02:31:21.831Z,16.83
2023-03-26T02:31:43.699Z,16.83
2023-03-26T02:32:06.881Z,16.81
2023-03-26T02:32:29.360Z,16.83
2023-03-26T02:32:54.122Z,16.83
2023-03-26T02:33:17.626Z,16.84
2023-03-26T02:33:40.029Z,16.84
2023-03-26T02:34:01.948Z,16.82
2023-03-26T02:34:27.071Z,16.77
2023-03-26T02:34:51.246Z,16.77
2023-03-26T02:35:13.438Z,16.86
2023-03-26T02:35:35.269Z,16.82
2023-03-26T02:36:01.715Z,16.80
2023-03-26T02:36:27.869Z,16.86
2023-03-26T02:36:53.013Z,16.84
2023-03-26T02:37:15.042Z,16.84
2023-03-26T02:37:39.043Z,16.83
2023-03-26T02:38:10.423Z,16.85
2023-03-26T02:38:33.714Z,16.78
2023-03-26T02:38:58.015Z,16.79
2023-03-26T02:39:20.951Z,16.73
2023-03-26T02:39:57.377Z,16.72
2023-03-26T02:40:26.942Z,16.70
2023-03-26T02:40:49.714Z,16.68
2023-03-26T02:41:12.297Z,16.66
2023-03-26T02:41:49.580Z,16.48
2023-03-26T02:42:12.349Z,16.31
2023-03-26T02:42:41.147Z,16.31
2023-03-26T02:43:03.965Z,16.16
2023-03-26T02:43:27.043Z,16.25
2023-03-26T02:43:49.830Z,16.34
2023-03-26T02:44:14.835Z,16.41
2023-03-26T02:44:59.897Z,16.47
2023-03-26T02:45:46.892Z,16.55
2023-03-26T02:46:27.303Z,16.61
2023-03-26T02:47:00.398Z,16.66
2023-03-26T02:47:41.768Z,16.69
2023-03-26T02:48:37.275Z,16.69
2023-03-26T02:49:17.356Z,16.60
2023-03-26T02:49:39.262Z,16.65
2023-03-26T02:50:01.526Z,16.71
2023-03-26T02:50:44.536Z,16.68
2023-03-26T02:51:25.753Z,16.76
2023-03-26T02:52:10.488Z,16.77
2023-03-26T02:52:33.635Z,16.79
2023-03-26T02:52:55.333Z,16.79
2023-03-26T02:53:18.159Z,16.82
2023-03-26T02:53:47.343Z,16.80
2023-03-26T02:54:20.903Z,16.76
2023-03-26T02:54:49.814Z,16.88
2023-03-26T02:55:16.649Z,16.87
2023-03-26T02:55:41.130Z,16.90
2023-03-26T02:56:03.121Z,16.89
2023-03-26T02:56:34.029Z,16.89
2023-03-26T02:57:19.126Z,16.90
2023-03-26T02:58:04.031Z,16.90
2023-03-26T02:58:32.151Z,16.91
2023-03-26T02:58:54.158Z,16.94
2023-03-26T02:59:15.849Z,16.94
2023-03-26T02:59:40.964Z,16.97
2023-03-26T03:00:31.282Z,17.01
2023-03-26T03:01:11.539Z,17.02
2023-03-26T03:01:43.045Z,17.03
2023-03-26T03:02:06.458Z,17.04
2023-03-26T03:02:29.474Z,17.05
2023-03-26T03:02:58.668Z,17.06
2023-03-26T03:03:27.527Z,17.05
2023-03-26T03:03:52.078Z,17.11
2023-03-26T03:04:30.083Z,17.09
2023-03-26T03:04:51.946Z,17.09
2023-03-26T03:05:13.967Z,17.10
2023-03-26T03:05:37.883Z,17.09
2023-03-26T03:06:19.006Z,17.07
2023-03-26T03:06:45.838Z,17.12
2023-03-26T03:07:08.026Z,17.11
2023-03-26T03:07:29.760Z,17.06
2023-03-26T03:07:58.120Z,17.13
2023-03-26T03:08:22.909Z,17.14
2023-03-26T03:09:12.016Z,17.13
2023-03-26T03:09:34.701Z,17.14
2023-03-26T03:10:34.482Z,17.17
2023-03-26T03:11:11.741Z,17.17
2023-03-26T03:11:38.940Z,17.13
2023-03-26T03:12:00.821Z,17.09
2023-03-26T03:12:22.416Z,17.12
2023-03-26T03:12:44.240Z,17.12
2023-03-26T03:13:07.708Z,17.12
2023-03-26T03:13:31.115Z,17.12
2023-03-26T03:13:54.075Z,17.16
2023-03-26T03:14:21.217Z,17.14
2023-03-26T03:14:42.800Z,17.09
2023-03-26T03:15:05.184Z,17.10
2023-03-26T03:15:28.326Z,17.09
2023-03-26T03:15:50.418Z,17.13
2023-03-26T03:16:12.231Z,17.10
2023-03-26T03:16:34.071Z,17.12
2023-03-26T03:17:02.616Z,17.13
2023-03-26T03:17:24.430Z,17.14
2023-03-26T03:17:46.116Z,17.15
2023-03-26T03:18:07.931Z,17.16
2023-03-26T03:18:30.774Z,17.14
2023-03-26T03:18:54.503Z,17.09
2023-03-26T03:19:17.300Z,17.14
2023-03-26T03:19:39.061Z,17.17
2023-03-26T03:20:01.914Z,17.18
2023-03-26T03:20:24.579Z,17.19
2023-03-26T03:20:46.908Z,17.18
2023-03-26T03:21:08.541Z,17.17
2023-03-26T03:21:31.225Z,17.15
2023-03-26T03:21:52.909Z,17.18
2023-03-26T03:22:14.715Z,17.19
2023-03-26T03:22:37.602Z,17.19
2023-03-26T03:23:00.414Z,17.22
2023-03-26T03:23:23.177Z,17.23
2023-03-26T03:23:50.300Z,17.20
2023-03-26T03:24:13.719Z,17.22
2023-03-26T03:24:43.712Z,17.20
2023-03-26T03:25:14.397Z,17.22
2023-03-26T03:25:36.249Z,17.18
2023-03-26T03:25:58.388Z,17.21
2023-03-26T03:26:27.640Z,17.20
2023-03-26T03:26:50.347Z,17.18
2023-03-26T03:27:29.379Z,17.18
2023-03-26T03:28:02.685Z,17.20
2023-03-26T03:28:25.403Z,17.21
2023-03-26T03:28:47.919Z,17.17
2023-03-26T03:29:12.056Z,17.20
2023-03-26T03:29:34.056Z,17.20
2023-03-26T03:30:16.623Z,17.18
2023-03-26T03:30:41.732Z,17.17
2023-03-26T03:31:09.913Z,17.21
2023-03-26T03:31:32.433Z,17.21
2023-03-26T03:32:00.096Z,17.21
2023-03-26T03:32:42.248Z,17.22
2023-03-26T03:33:06.199Z,17.22
2023-03-26T03:33:28.881Z,17.24
2023-03-26T03:33:52.023Z,17.25
2023-03-26T03:34:13.929Z,17.22
2023-03-26T03:34:42.444Z,17.19
2023-03-26T03:35:04.961Z,17.22
2023-03-26T03:35:27.881Z,17.25
2023-03-26T03:35:52.987Z,17.22
2023-03-26T03:36:21.980Z,17.24
2023-03-26T03:36:57.313Z,17.22
2023-03-26T03:37:31.177Z,17.21
2023-03-26T03:37:55.469Z,17.20
2023-03-26T03:38:18.029Z,17.19
2023-03-26T03:38:42.881Z,17.20
2023-03-26T03:39:06.531Z,17.19
2023-03-26T03:39:30.562Z,17.22
2023-03-26T03:39:52.487Z,17.23
2023-03-26T03:40:17.021Z,17.20
2023-03-26T03:40:39.643Z,17.20
2023-03-26T03:41:02.683Z,17.16
2023-03-26T03:41:26.930Z,17.19
2023-03-26T03:41:49.332Z,17.21
2023-03-26T03:42:12.067Z,17.18
2023-03-26T03:42:35.284Z,17.18
2023-03-26T03:42:58.409Z,17.16
2023-03-26T03:43:29.628Z,17.18
2023-03-26T03:44:14.555Z,17.21
2023-03-26T03:44:36.246Z,17.18
2023-03-26T03:45:03.410Z,17.18
2023-03-26T03:45:38.093Z,17.18
2023-03-26T03:46:07.784Z,17.18
2023-03-26T03:46:38.167Z,17.18
2023-03-26T03:47:00.984Z,17.16
2023-03-26T03:47:22.841Z,17.11
2023-03-26T03:47:44.918Z,17.16
2023-03-26T03:48:08.284Z,17.17
2023-03-26T03:48:38.057Z,17.14
2023-03-26T03:49:02.046Z,17.12
2023-03-26T03:49:27.709Z,17.07
2023-03-26T03:49:53.595Z,17.06
2023-03-26T03:50:15.429Z,17.05
2023-03-26T03:50:50.270Z,17.05
2023-03-26T03:51:19.672Z,17.05
2023-03-26T03:51:44.311Z,17.04
2023-03-26T03:52:19.155Z,17.07
2023-03-26T03:52:41.788Z,17.07
2023-03-26T03:53:05.530Z,17.08
2023-03-26T03:53:27.333Z,17.04
2023-03-26T03:53:52.736Z,17.00
2023-03-26T03:54:29.328Z,17.02
2023-03-26T03:55:19.980Z,16.99
2023-03-26T03:55:52.917Z,17.02
2023-03-26T03:56:19.291Z,17.05
2023-03-26T03:57:04.865Z,17.06
2023-03-26T03:57:48.514Z,17.05
2023-03-26T03:58:14.668Z,17.05
2023-03-26T03:58:36.794Z,17.06
2023-03-26T03:59:06.380Z,17.06
2023-03-26T03:59:31.497Z,17.07
2023-03-26T03:59:53.912Z,17.03
2023-03-26T04:00:17.005Z,17.05
2023-03-26T04:00:41.543Z,17.00
2023-03-26T04:01:24.170Z,17.00
2023-03-26T04:01:53.935Z,16.97
2023-03-26T04:02:30.153Z,16.95
2023-03-26T04:02:56.143Z,16.88
2023-03-26T04:03:34.206Z,16.97
2023-03-26T04:03:59.352Z,16.91
2023-03-26T04:04:34.269Z,16.90
2023-03-26T04:04:59.414Z,16.90
2023-03-26T04:05:22.100Z,16.92
2023-03-26T04:05:49.561Z,16.86
2023-03-26T04:06:12.569Z,16.84
2023-03-26T04:06:36.353Z,16.89
2023-03-26T04:06:57.936Z,16.92
2023-03-26T04:07:23.159Z,16.93
2023-03-26T04:08:05.538Z,16.87
2023-03-26T04:08:39.962Z,16.96
2023-03-26T04:09:02.969Z,16.99
2023-03-26T04:09:25.051Z,17.00
2023-03-26T04:09:49.360Z,16.96
2023-03-26T04:10:16.314Z,16.92
2023-03-26T04:11:04.934Z,16.98
2023-03-26T04:11:51.134Z,16.97
2023-03-26T04:12:36.724Z,16.96
2023-03-26T04:12:59.787Z,16.89
2023-03-26T04:13:55.067Z,16.98
2023-03-26T04:14:45.921Z,16.95
2023-03-26T04:15:10.398Z,16.84
2023-03-26T04:15:33.294Z,16.95
2023-03-26T04:15:57.140Z,16.87
2023-03-26T04:16:19.456Z,17.00
2023-03-26T04:16:44.064Z,16.98
2023-03-26T04:17:06.584Z,16.99
2023-03-26T04:17:31.349Z,16.99
2023-03-26T04:17:56.631Z,16.98
2023-03-26T04:18:18.421Z,16.95
2023-03-26T04:18:42.315Z,16.98
2023-03-26T04:19:10.993Z,16.89
2023-03-26T04:19:34.823Z,16.95
2023-03-26T04:19:57.169Z,16.94
2023-03-26T04:20:24.304Z,16.94
2023-03-26T04:20:46.944Z,16.96
2023-03-26T04:21:16.262Z,16.94
2023-03-26T04:21:42.832Z,16.94
2023-03-26T04:22:04.921Z,16.98
2023-03-26T04:22:34.975Z,17.01
2023-03-26T04:23:00.103Z,16.96
2023-03-26T04:23:23.179Z,16.97
2023-03-26T04:23:51.118Z,16.97
2023-03-26T04:24:40.788Z,16.95
2023-03-26T04:25:05.810Z,16.98
2023-03-26T04:25:39.371Z,16.96
2023-03-26T04:26:16.133Z,16.95
2023-03-26T04:27:01.371Z,16.90
2023-03-26T04:27:32.494Z,16.94
2023-03-26T04:28:26.358Z,16.97
2023-03-26T04:29:04.856Z,16.99
2023-03-26T04:29:30.570Z,16.99
2023-03-26T04:29:53.608Z,16.98
2023-03-26T04:30:20.610Z,17.01
2023-03-26T04:30:48.849Z,16.97
2023-03-26T04:31:29.116Z,16.98
2023-03-26T04:31:58.579Z,16.99
2023-03-26T04:32:26.410Z,16.99
2023-03-26T04:32:49.196Z,16.99
2023-03-26T04:33:15.442Z,16.97
2023-03-26T04:33:39.162Z,16.94
2023-03-26T04:34:07.727Z,16.94
2023-03-26T04:34:38.018Z,16.98
2023-03-26T04:35:06.748Z,16.93
2023-03-26T04:35:30.279Z,16.99
2023-03-26T04:35:52.292Z,16.94
2023-03-26T04:36:17.109Z,16.93
2023-03-26T04:36:42.300Z,16.89
2023-03-26T04:37:04.916Z,16.97
2023-03-26T04:37:36.274Z,16.93
2023-03-26T04:38:21.134Z,16.95
2023-03-26T04:38:52.088Z,16.93
2023-03-26T04:39:18.625Z,16.90
2023-03-26T04:40:10.284Z,16.95
2023-03-26T04:40:34.707Z,16.97
2023-03-26T04:41:07.859Z,16.97
2023-03-26T04:41:37.374Z,17.00
2023-03-26T04:42:01.514Z,17.00
2023-03-26T04:42:33.407Z,17.03
2023-03-26T04:43:06.445Z,16.93
2023-03-26T04:43:50.336Z,16.94
2023-03-26T04:44:42.202Z,16.91
2023-03-26T04:45:07.546Z,16.85
2023-03-26T04:45:31.160Z,16.86
2023-03-26T04:45:53.947Z,16.89
2023-03-26T04:46:21.540Z,16.89
2023-03-26T04:46:48.762Z,16.79
2023-03-26T04:47:17.797Z,16.84
2023-03-26T04:47:41.000Z,16.87
2023-03-26T04:48:03.947Z,16.83
2023-03-26T04:48:25.800Z,16.76
2023-03-26T04:48:47.729Z,16.71
2023-03-26T04:49:09.561Z,16.73
2023-03-26T04:49:32.681Z,16.79
2023-03-26T04:49:54.839Z,16.79
2023-03-26T04:50:16.689Z,16.82
2023-03-26T04:50:38.923Z,16.81
2023-03-26T04:51:01.858Z,16.83
2023-03-26T04:51:27.141Z,16.83
2023-03-26T04:51:51.357Z,16.80
2023-03-26T04:52:46.524Z,16.89
2023-03-26T04:53:31.475Z,16.82
2023-03-26T04:54:08.027Z,16.86
2023-03-26T04:54:45.508Z,16.88
2023-03-26T04:55:19.937Z,16.89
2023-03-26T04:55:50.653Z,16.89
2023-03-26T04:56:34.180Z,16.88
2023-03-26T04:57:04.160Z,16.89
2023-03-26T04:57:51.080Z,16.93
2023-03-26T04:58:35.661Z,16.91
2023-03-26T04:59:01.267Z,16.90
2023-03-26T04:59:34.939Z,16.84
2023-03-26T04:59:59.600Z,16.87
2023-03-26T05:00:22.509Z,16.82
2023-03-26T05:00:50.273Z,16.79
2023-03-26T05:01:13.925Z,16.81
2023-03-26T05:01:40.124Z,16.78
2023-03-26T05:02:04.874Z,16.78
2023-03-26T05:02:33.747Z,16.80
2023-03-26T05:02:57.831Z,16.72
2023-03-26T05:03:21.026Z,16.82
2023-03-26T05:03:45.787Z,16.81
2023-03-26T05:04:10.800Z,16.83
2023-03-26T05:04:34.162Z,16.82
2023-03-26T05:04:57.458Z,16.84
2023-03-26T05:05:23.347Z,16.83
2023-03-26T05:05:49.597Z,16.81
2023-03-26T05:06:13.211Z,16.80
2023-03-26T05:06:35.174Z,16.79
2023-03-26T05:07:04.118Z,16.83
2023-03-26T05:07:33.205Z,16.86
2023-03-26T05:07:56.037Z,16.85
2023-03-26T05:08:18.550Z,16.84
2023-03-26T05:08:41.877Z,16.87
2023-03-26T05:09:10.618Z,16.82
2023-03-26T05:09:57.211Z,16.83
2023-03-26T05:10:44.187Z,16.84
2023-03-26T05:11:15.574Z,16.85
2023-03-26T05:11:37.828Z,16.84
2023-03-26T05:12:00.592Z,16.86
2023-03-26T05:12:22.693Z,16.77
2023-03-26T05:13:13.849Z,16.79
2023-03-26T05:13:42.944Z,16.67
2023-03-26T05:14:09.013Z,16.70
2023-03-26T05:14:30.893Z,16.71
2023-03-26T05:14:53.168Z,16.72
2023-03-26T05:15:25.941Z,16.72
2023-03-26T05:16:06.879Z,16.70
2023-03-26T05:16:53.419Z,16.72
2023-03-26T05:17:18.755Z,16.72
2023-03-26T05:17:42.655Z,16.70
2023-03-26T05:18:14.196Z,16.73
2023-03-26T05:18:38.779Z,16.68
2023-03-26T05:19:01.783Z,16.69
2023-03-26T05:19:27.365Z,16.65
2023-03-26T05:19:49.066Z,16.57
2023-03-26T05:20:20.498Z,16.69
2023-03-26T05:20:43.524Z,16.65
2023-03-26T05:21:06.012Z,16.65
2023-03-26T05:21:28.709Z,16.60
2023-03-26T05:21:50.645Z,16.59
2023-03-26T05:22:12.403Z,16.61
2023-03-26T05:22:43.663Z,16.58
2023-03-26T05:23:11.741Z,16.53
2023-03-26T05:23:36.891Z,16.47
2023-03-26T05:24:09.744Z,16.52
2023-03-26T05:24:31.410Z,16.49
2023-03-26T05:24:53.092Z,16.49
2023-03-26T05:25:15.815Z,16.47
2023-03-26T05:25:38.579Z,16.47
2023-03-26T05:26:09.117Z,16.50
2023-03-26T05:26:31.200Z,16.51
2023-03-26T05:26:52.818Z,16.53
2023-03-26T05:27:22.201Z,16.52
2023-03-26T05:27:43.934Z,16.55
2023-03-26T05:28:05.742Z,16.52
2023-03-26T05:28:38.818Z,16.52
2023-03-26T05:29:09.432Z,16.51
2023-03-26T05:29:36.699Z,16.55
2023-03-26T05:30:01.141Z,16.54
2023-03-26T05:30:24.371Z,16.58
2023-03-26T05:30:50.974Z,16.58
2023-03-26T05:31:12.838Z,16.56
2023-03-26T05:31:40.450Z,16.52
2023-03-26T05:32:04.540Z,16.57
2023-03-26T05:32:26.247Z,16.55
2023-03-26T05:32:49.440Z,16.52
2023-03-26T05:33:13.811Z,16.53
2023-03-26T05:33:44.196Z,16.50
2023-03-26T05:34:07.803Z,16.50
2023-03-26T05:34:29.540Z,16.45
2023-03-26T05:34:51.400Z,16.44
2023-03-26T05:35:16.752Z,16.37
2023-03-26T05:35:39.811Z,16.42
2023-03-26T05:36:06.001Z,16.39
2023-03-26T05:36:28.550Z,16.41
2023-03-26T05:37:10.120Z,16.39
2023-03-26T05:37:51.549Z,16.35
2023-03-26T05:38:17.815Z,16.38
2023-03-26T05:38:42.557Z,16.35
2023-03-26T05:39:07.063Z,16.32
2023-03-26T05:39:47.501Z,16.30
2023-03-26T05:40:29.143Z,16.32
2023-03-26T05:40:58.946Z,16.33
2023-03-26T05:41:20.857Z,16.29
2023-03-26T05:41:44.335Z,16.23
2023-03-26T05:42:07.876Z,16.26
2023-03-26T05:42:45.461Z,16.32
2023-03-26T05:43:31.453Z,16.35
2023-03-26T05:44:09.453Z,16.31
2023-03-26T05:44:31.170Z,16.39
2023-03-26T05:44:57.430Z,16.40
2023-03-26T05:45:22.981Z,16.43
2023-03-26T05:45:47.868Z,16.41
2023-03-26T05:46:20.320Z,16.40
2023-03-26T05:46:42.051Z,16.43
2023-03-26T05:47:07.013Z,16.43
2023-03-26T05:47:30.011Z,16.39
2023-03-26T05:47:54.245Z,16.41
2023-03-26T05:48:19.429Z,16.37
2023-03-26T05:48:41.203Z,16.28
2023-03-26T05:49:03.859Z,16.33
2023-03-26T05:49:28.920Z,16.26
2023-03-26T05:49:51.520Z,16.27
2023-03-26T05:50:13.554Z,16.29
2023-03-26T05:50:38.804Z,16.28
2023-03-26T05:51:00.690Z,16.27